createdAt,value
2019-05-22T00:03:19.280Z,13.20
2019-05-22T00:06:48.227Z,11.90
2019-05-22T00:10:15.699Z,9.00
2019-05-22T00:13:40.245Z,11.83
2019-05-22T00:17:06.638Z,11.83
2019-05-22T00:20:31.839Z,11.97
2019-05-22T00:23:55.647Z,25.27
2019-05-22T00:27:21.500Z,13.27
2019-05-22T00:30:47.743Z,10.47
2019-05-22T00:34:11.751Z,14.67
2019-05-22T00:37:36.183Z,18.03
2019-05-22T00:41:04.635Z,15.83
2019-05-22T00:44:29.655Z,15.83
2019-05-22T00:47:54.703Z,13.03
2019-05-22T00:51:36.278Z,14.03
2019-05-22T00:55:18.704Z,13.23
2019-05-22T00:58:44.218Z,16.30
2019-05-22T01:02:18.813Z,13.63
2019-05-22T01:05:42.836Z,23.67
2019-05-22T01:09:10.272Z,12.33
2019-05-22T01:12:36.616Z,15.97
2019-05-22T01:16:01.933Z,17.27
2019-05-22T01:19:28.236Z,13.63
2019-05-22T01:22:54.030Z,17.63
2019-05-22T01:26:19.856Z,13.13
2019-05-22T01:29:45.506Z,19.23
2019-05-22T01:33:11.368Z,32.87
2019-05-22T01:36:42.855Z,16.57
2019-05-22T01:40:08.876Z,14.27
2019-05-22T01:43:34.175Z,16.77
2019-05-22T01:47:02.076Z,14.77
2019-05-22T01:50:41.321Z,15.00
2019-05-22T01:54:06.870Z,12.20
2019-05-22T01:57:30.950Z,13.63
2019-05-22T02:00:55.744Z,13.30
2019-05-22T02:04:21.991Z,9.37
2019-05-22T02:07:45.838Z,16.67
2019-05-22T02:11:12.287Z,15.07
2019-05-22T02:14:38.613Z,11.07
2019-05-22T02:18:06.164Z,14.73
2019-05-22T02:21:30.262Z,10.63
2019-05-22T02:24:54.888Z,13.80
2019-05-22T02:28:19.903Z,18.20
2019-05-22T02:31:44.881Z,12.03
2019-05-22T02:35:10.517Z,19.80
2019-05-22T02:38:35.447Z,17.37
2019-05-22T02:42:06.699Z,18.70
2019-05-22T02:45:31.591Z,19.93
2019-05-22T02:48:56.139Z,21.90
2019-05-22T02:52:22.180Z,16.97
2019-05-22T02:55:47.884Z,21.00
2019-05-22T02:59:13.072Z,19.87
2019-05-22T03:02:50.184Z,18.37
2019-05-22T03:06:15.477Z,21.50
2019-05-22T03:09:41.228Z,21.97
2019-05-22T03:13:06.375Z,21.77
2019-05-22T03:16:41.824Z,26.00
2019-05-22T03:20:09.556Z,24.93
2019-05-22T03:23:38.104Z,28.37
2019-05-22T03:27:03.606Z,27.93
2019-05-22T03:30:34.573Z,30.13
2019-05-22T03:33:59.032Z,26.83
2019-05-22T03:37:23.658Z,29.93
2019-05-22T03:40:50.386Z,26.97
2019-05-22T03:44:15.650Z,24.30
2019-05-22T03:47:41.016Z,35.43
2019-05-22T03:51:14.166Z,32.63
2019-05-22T03:54:39.320Z,35.73
2019-05-22T03:58:04.204Z,29.63
2019-05-22T04:01:29.185Z,32.57
2019-05-22T04:04:54.811Z,28.93
2019-05-22T04:08:20.577Z,27.27
2019-05-22T04:11:46.965Z,27.50
2019-05-22T04:15:12.553Z,30.27
2019-05-22T04:18:37.524Z,32.73
2019-05-22T04:22:01.378Z,29.20
2019-05-22T04:25:25.190Z,26.87
2019-05-22T04:28:52.589Z,28.80
2019-05-22T04:32:20.797Z,22.53
2019-05-22T04:35:44.885Z,26.87
2019-05-22T04:39:13.279Z,25.07
2019-05-22T04:42:38.559Z,24.07
2019-05-22T04:46:04.750Z,24.93
2019-05-22T04:49:28.802Z,28.37
2019-05-22T04:52:54.505Z,27.00
2019-05-22T04:56:18.578Z,32.00
2019-05-22T04:59:42.663Z,29.00
2019-05-22T05:03:06.848Z,22.80
2019-05-22T05:06:33.244Z,20.20
2019-05-22T05:09:57.844Z,18.27
2019-05-22T05:13:21.875Z,14.77
2019-05-22T05:16:47.056Z,16.83
2019-05-22T05:20:22.050Z,17.03
2019-05-22T05:23:36.628Z,13.57
2019-05-22T05:27:00.755Z,11.47
2019-05-22T05:30:27.363Z,12.50
2019-05-22T05:34:02.803Z,11.70
2019-05-22T05:37:27.552Z,11.93
2019-05-22T05:40:51.521Z,10.60
2019-05-22T05:44:15.414Z,10.80
2019-05-22T05:47:41.421Z,9.10
2019-05-22T05:51:09.891Z,9.27
2019-05-22T05:54:35.273Z,8.43
2019-05-22T05:58:18.634Z,8.03
2019-05-22T06:01:46.488Z,10.23
2019-05-22T06:05:10.699Z,9.37
2019-05-22T06:08:34.964Z,37.57
2019-05-22T06:12:03.362Z,12.73
2019-05-22T06:15:46.697Z,16.73
2019-05-22T06:19:01.107Z,88.47
2019-05-22T06:22:28.925Z,49.80
2019-05-22T06:33:15.499Z,58.23
2019-05-22T06:36:41.311Z,7.20
2019-05-22T06:40:07.118Z,6.13
2019-05-22T06:43:36.481Z,7.13
2019-05-22T06:47:01.297Z,46.77
2019-05-22T06:50:25.106Z,7.20
2019-05-22T06:53:49.058Z,113.40
2019-05-22T06:57:15.046Z,4.20
2019-05-22T07:00:39.271Z,4.70
2019-05-22T07:04:03.828Z,3.40
2019-05-22T07:07:28.052Z,5.50
2019-05-22T07:10:52.307Z,4.87
2019-05-22T07:14:17.564Z,5.47
2019-05-22T07:17:42.116Z,2.97
2019-05-22T07:21:07.059Z,5.00
2019-05-22T07:24:31.145Z,8.47
2019-05-22T07:27:56.726Z,4.80
2019-05-22T07:31:20.553Z,5.00
2019-05-22T07:34:44.498Z,5.23
2019-05-22T07:38:08.460Z,8.93
2019-05-22T07:41:32.399Z,5.93
2019-05-22T07:44:56.250Z,5.13
2019-05-22T07:48:21.153Z,8.23
2019-05-22T07:51:54.004Z,22.93
2019-05-22T07:55:11.607Z,9.53
2019-05-22T07:58:35.691Z,8.97
2019-05-22T08:02:02.056Z,10.70
2019-05-22T08:05:26.691Z,10.77
2019-05-22T08:08:52.799Z,11.13
2019-05-22T08:12:17.317Z,9.67
2019-05-22T08:15:41.187Z,11.83
2019-05-22T08:19:05.486Z,9.40
2019-05-22T08:22:30.720Z,9.87
2019-05-22T08:25:56.310Z,9.83
2019-05-22T08:29:21.615Z,10.00
2019-05-22T08:32:45.898Z,9.30
2019-05-22T08:36:10.200Z,7.83
2019-05-22T08:39:34.568Z,7.60
2019-05-22T08:42:58.859Z,8.53
2019-05-22T08:46:23.058Z,8.23
2019-05-22T08:49:49.595Z,7.03
2019-05-22T08:53:16.290Z,6.60
2019-05-22T08:56:43.151Z,8.13
2019-05-22T09:00:08.145Z,11.13
2019-05-22T09:03:31.896Z,55.17
2019-05-22T09:06:55.971Z,37.27
2019-05-22T09:10:20.116Z,7.93
2019-05-22T09:13:44.024Z,8.33
2019-05-22T09:17:08.803Z,7.83
2019-05-22T09:20:48.115Z,9.63
2019-05-22T09:24:00.852Z,38.30
2019-05-22T09:27:25.390Z,11.97
2019-05-22T09:30:49.329Z,5.70
2019-05-22T09:34:13.118Z,9.70
2019-05-22T09:37:37.094Z,17.47
2019-05-22T09:41:01.327Z,14.00
2019-05-22T09:44:25.307Z,12.00
2019-05-22T09:47:49.263Z,20.23
2019-05-22T09:51:13.207Z,7.73
2019-05-22T09:54:39.090Z,9.20
2019-05-22T09:58:03.037Z,4.83
2019-05-22T10:01:27.116Z,4.60
2019-05-22T10:04:50.925Z,3.70
2019-05-22T10:08:15.238Z,3.50
2019-05-22T10:11:39.780Z,4.03
2019-05-22T10:15:05.127Z,4.50
2019-05-22T10:18:29.277Z,5.93
2019-05-22T10:21:54.142Z,4.73
2019-05-22T10:25:18.584Z,3.90
2019-05-22T10:28:43.141Z,6.73
2019-05-22T10:32:07.612Z,3.77
2019-05-22T10:35:33.206Z,3.53
2019-05-22T10:38:57.216Z,6.47
2019-05-22T10:42:21.376Z,6.50
2019-05-22T10:45:45.590Z,3.53
2019-05-22T10:49:09.602Z,11.60
2019-05-22T10:52:34.128Z,8.33
2019-05-22T10:55:58.439Z,3.87
2019-05-22T10:59:22.623Z,7.27
2019-05-22T11:02:46.591Z,29.93
2019-05-22T11:06:11.092Z,15.20
2019-05-22T11:09:35.726Z,5.17
2019-05-22T11:13:00.808Z,12.50
2019-05-22T11:16:25.003Z,6.53
2019-05-22T11:19:49.222Z,6.03
2019-05-22T11:23:13.088Z,3.70
2019-05-22T11:26:36.946Z,4.23
2019-05-22T11:30:02.449Z,3.07
2019-05-22T11:33:26.816Z,4.27
2019-05-22T11:36:50.972Z,3.13
2019-05-22T11:40:15.385Z,5.00
2019-05-22T11:43:39.323Z,4.13
2019-05-22T11:47:03.605Z,5.03
2019-05-22T11:50:28.144Z,6.50
2019-05-22T11:54:07.826Z,4.53
2019-05-22T11:57:18.931Z,4.67
2019-05-22T12:00:43.006Z,3.60
2019-05-22T12:04:09.553Z,4.73
2019-05-22T12:07:33.329Z,5.80
2019-05-22T12:10:57.750Z,3.83
2019-05-22T12:14:22.063Z,8.60
2019-05-22T12:17:46.234Z,6.70
2019-05-22T12:21:10.165Z,23.93
2019-05-22T12:24:37.251Z,51.77
2019-05-22T12:28:01.759Z,20.97
2019-05-22T12:31:25.663Z,26.37
2019-05-22T12:34:49.866Z,18.57
2019-05-22T12:38:15.171Z,16.73
2019-05-22T12:41:39.534Z,15.73
2019-05-22T12:45:05.616Z,7.90
2019-05-22T12:48:30.131Z,8.43
2019-05-22T12:51:54.246Z,12.37
2019-05-22T12:55:20.828Z,10.73
2019-05-22T12:58:45.291Z,10.67
2019-05-22T13:02:10.959Z,7.17
2019-05-22T13:05:37.246Z,8.10
2019-05-22T13:09:00.996Z,13.00
2019-05-22T13:12:25.881Z,18.33
2019-05-22T13:15:50.104Z,14.33
2019-05-22T13:19:14.973Z,14.33
2019-05-22T13:22:43.747Z,11.57
2019-05-22T13:26:08.978Z,9.37
2019-05-22T13:29:32.932Z,7.33
2019-05-22T13:32:57.281Z,7.47
2019-05-22T13:36:22.513Z,7.87
2019-05-22T13:39:46.681Z,10.17
2019-05-22T13:43:11.726Z,6.33
2019-05-22T13:46:36.139Z,7.07
2019-05-22T13:50:01.128Z,7.03
2019-05-22T13:53:25.341Z,8.97
2019-05-22T13:56:49.556Z,43.07
2019-05-22T14:00:16.799Z,12.10
2019-05-22T14:03:40.845Z,8.47
2019-05-22T14:07:06.355Z,9.23
2019-05-22T14:10:31.514Z,17.87
2019-05-22T14:13:55.921Z,19.53
2019-05-22T14:17:20.085Z,124.97
2019-05-22T14:20:44.231Z,190.27
2019-05-22T14:24:08.337Z,112.20
2019-05-22T14:27:32.629Z,185.70
2019-05-22T14:30:57.077Z,193.47
2019-05-22T14:34:21.504Z,30.40
2019-05-22T14:37:48.586Z,37.87
2019-05-22T14:41:13.274Z,54.47
2019-05-22T14:44:37.597Z,127.17
2019-05-22T14:48:01.430Z,13.77
2019-05-22T14:51:25.637Z,10.30
2019-05-22T14:54:49.452Z,6.73
2019-05-22T14:58:14.545Z,20.43
2019-05-22T15:01:39.949Z,54.77
2019-05-22T15:05:05.366Z,66.00
2019-05-22T15:08:29.327Z,21.83
2019-05-22T15:11:55.879Z,24.43
2019-05-22T15:15:20.303Z,10.60
2019-05-22T15:18:44.773Z,11.43
2019-05-22T15:22:10.597Z,185.17
2019-05-22T15:25:34.604Z,12.33
2019-05-22T15:28:58.577Z,14.83
2019-05-22T15:32:23.822Z,13.40
2019-05-22T15:35:47.743Z,30.07
2019-05-22T15:39:14.726Z,10.23
2019-05-22T15:42:41.734Z,8.73
2019-05-22T15:46:07.415Z,13.67
2019-05-22T15:49:33.136Z,11.40
2019-05-22T15:53:04.381Z,19.07
2019-05-22T15:56:29.572Z,13.93
2019-05-22T15:59:54.089Z,17.57
2019-05-22T16:03:26.260Z,11.03
2019-05-22T16:06:51.237Z,11.70
2019-05-22T16:10:16.390Z,6.77
2019-05-22T16:13:42.378Z,5.83
2019-05-22T16:17:08.311Z,7.53
2019-05-22T16:20:35.192Z,12.53
2019-05-22T16:23:59.751Z,8.93
2019-05-22T16:27:25.971Z,8.37
2019-05-22T16:30:50.158Z,7.53
2019-05-22T16:34:15.527Z,8.03
2019-05-22T16:37:39.890Z,6.33
2019-05-22T16:41:05.454Z,9.17
2019-05-22T16:44:29.252Z,7.93
2019-05-22T16:47:55.416Z,12.10
2019-05-22T16:51:22.616Z,21.90
2019-05-22T16:54:49.463Z,24.23
2019-05-22T16:58:19.349Z,9.03
2019-05-22T17:01:57.670Z,8.40
2019-05-22T17:05:12.514Z,10.97
2019-05-22T17:08:38.138Z,9.73
2019-05-22T17:12:05.079Z,7.07
2019-05-22T17:15:30.075Z,6.07
2019-05-22T17:18:54.231Z,6.00
2019-05-22T17:22:18.929Z,6.47
2019-05-22T17:25:44.487Z,8.47
2019-05-22T17:29:09.028Z,7.77
2019-05-22T17:32:34.181Z,8.70
2019-05-22T17:36:00.563Z,8.77
2019-05-22T17:39:24.878Z,8.20
2019-05-22T17:42:51.204Z,8.57
2019-05-22T17:46:18.922Z,10.90
2019-05-22T17:49:44.642Z,14.07
2019-05-22T17:53:08.629Z,59.87
2019-05-22T17:56:32.635Z,14.67
2019-05-22T17:59:57.205Z,20.07
2019-05-22T18:03:23.201Z,13.43
2019-05-22T18:06:47.110Z,12.20
2019-05-22T18:10:11.747Z,14.03
2019-05-22T18:13:39.675Z,13.53
2019-05-22T18:17:04.396Z,14.17
2019-05-22T18:20:41.792Z,23.60
2019-05-22T18:23:54.505Z,69.27
2019-05-22T18:27:18.398Z,72.20
2019-05-22T18:30:43.008Z,50.27
2019-05-22T18:34:07.094Z,54.50
2019-05-22T18:37:30.983Z,41.30
2019-05-22T18:40:54.936Z,29.67
2019-05-22T18:44:18.889Z,26.17
2019-05-22T18:47:43.172Z,25.40
2019-05-22T18:51:08.987Z,28.77
2019-05-22T18:54:32.995Z,42.50
2019-05-22T18:57:57.147Z,41.97
2019-05-22T19:01:21.088Z,42.17
2019-05-22T19:04:45.255Z,35.17
2019-05-22T19:08:09.328Z,62.10
2019-05-22T19:11:33.534Z,46.33
2019-05-22T19:14:57.353Z,45.03
2019-05-22T19:18:21.432Z,41.53
2019-05-22T19:21:46.109Z,40.33
2019-05-22T19:25:10.441Z,39.17
2019-05-22T19:28:43.316Z,47.33
2019-05-22T19:32:02.171Z,36.60
2019-05-22T19:35:26.434Z,50.50
2019-05-22T19:38:50.518Z,52.03
2019-05-22T19:42:16.437Z,47.87
2019-05-22T19:45:41.294Z,45.97
2019-05-22T19:49:06.069Z,74.37
2019-05-22T19:52:41.352Z,60.07
2019-05-22T19:55:59.216Z,69.43
2019-05-22T19:59:24.087Z,80.37
2019-05-22T20:02:50.798Z,84.87
2019-05-22T20:06:15.205Z,81.13
2019-05-22T20:09:39.687Z,87.53
2019-05-22T20:13:05.884Z,56.30
2019-05-22T20:16:29.798Z,77.07
2019-05-22T20:19:54.224Z,72.23
2019-05-22T20:23:32.958Z,68.90
2019-05-22T20:26:43.803Z,92.13
2019-05-22T20:30:10.472Z,79.63
2019-05-22T20:33:34.360Z,74.00
2019-05-22T20:36:58.173Z,98.33
2019-05-22T20:40:23.956Z,76.47
2019-05-22T20:43:47.763Z,80.93
2019-05-22T20:47:11.766Z,77.97
2019-05-22T20:50:37.488Z,93.87
2019-05-22T20:54:02.872Z,86.80
2019-05-22T20:57:28.739Z,94.87
2019-05-22T21:00:52.976Z,127.63
2019-05-22T21:04:20.653Z,172.50
2019-05-22T21:07:53.848Z,162.50
2019-05-22T21:11:20.912Z,153.33
2019-05-22T21:14:44.849Z,142.10
2019-05-22T21:18:09.186Z,136.13
2019-05-22T21:21:34.245Z,114.50
2019-05-22T21:24:58.778Z,143.27
2019-05-22T21:28:23.696Z,126.30
2019-05-22T21:31:48.231Z,115.23
2019-05-22T21:35:12.469Z,104.00
2019-05-22T21:38:36.295Z,113.07
2019-05-22T21:42:01.116Z,110.70
2019-05-22T21:45:26.672Z,89.13
2019-05-22T21:48:51.594Z,94.60
2019-05-22T21:52:16.072Z,97.23
2019-05-22T21:55:40.430Z,114.40
2019-05-22T21:59:05.476Z,105.03
2019-05-22T22:02:33.834Z,112.20
2019-05-22T22:05:59.150Z,106.00
2019-05-22T22:09:24.235Z,94.83
2019-05-22T22:12:49.250Z,106.83
2019-05-22T22:16:13.898Z,117.70
2019-05-22T22:19:38.465Z,164.97
2019-05-22T22:23:02.571Z,223.60
2019-05-22T22:26:26.868Z,360.23
2019-05-22T22:29:51.217Z,339.27
2019-05-22T22:33:15.844Z,460.03
2019-05-22T22:36:40.009Z,433.40
2019-05-22T22:40:04.748Z,333.73
2019-05-22T22:43:32.709Z,255.23
2019-05-22T22:47:00.260Z,334.97
2019-05-22T22:50:25.598Z,287.27
2019-05-22T22:53:50.291Z,340.23
2019-05-22T22:57:14.956Z,265.17
2019-05-22T23:00:40.772Z,183.33
2019-05-22T23:04:06.830Z,189.37
2019-05-22T23:07:31.814Z,197.67
2019-05-22T23:10:56.678Z,169.60
2019-05-22T23:14:23.086Z,118.50
2019-05-22T23:17:48.539Z,107.00
2019-05-22T23:21:12.738Z,200.10
2019-05-22T23:24:38.125Z,258.50
2019-05-22T23:28:03.018Z,212.73
2019-05-22T23:31:27.873Z,226.00
2019-05-22T23:34:52.316Z,215.70
2019-05-22T23:38:17.390Z,265.90
2019-05-22T23:41:42.527Z,281.97
2019-05-22T23:45:10.563Z,289.30
2019-05-22T23:48:34.981Z,191.03
2019-05-22T23:51:59.275Z,190.60
2019-05-22T23:55:23.983Z,168.53
2019-05-22T23:58:52.665Z,161.93
